Time;durP1;ratioP1;P1;durP2;ratioP2;P2;SDS_P1;SDS_P2;PMS_P1;PMS_P2;Temp;Humidity;BMP_temperature;BMP_pressure;BME280_temperature;BME280_humidity;BME280_pressure;Samples;Min_cycle;Max_cycle;Signal;HPM_P1;HPM_P2
2022/01/16 00:00:40;;;;;;;27.13;20.17;;;;;;;1.00;100.00;101169.47;4992091;28;20195;-48
2022/01/16 00:05:52;;;;;;;27.53;20.73;;;;;;;1.00;100.00;101206.81;4992346;28;20230;-47
2022/01/16 00:08:17;;;;;;;29.63;22.43;;;;;;;0.99;100.00;101205.06;4992303;28;20558;-47
2022/01/16 00:10:43;;;;;;;30.83;22.90;;;;;;;0.98;100.00;101213.53;4992239;28;20577;-47
2022/01/16 00:13:08;;;;;;;31.97;23.13;;;;;;;0.95;100.00;101213.41;4995269;28;20224;-45
2022/01/16 00:15:33;;;;;;;32.20;22.53;;;;;;;0.94;100.00;101217.59;4996114;28;20220;-47
2022/01/16 00:20:31;;;;;;;32.50;22.20;;;;;;;0.91;100.00;101214.91;4999658;28;20778;-47
2022/01/16 00:22:58;;;;;;;32.70;22.77;;;;;;;0.88;100.00;101214.78;5000178;28;20181;-47
2022/01/16 00:25:24;;;;;;;30.10;22.27;;;;;;;0.89;100.00;101216.53;4999296;28;20204;-47
2022/01/16 00:27:50;;;;;;;32.97;23.63;;;;;;;0.89;100.00;101217.41;4998175;28;20271;-46
2022/01/16 00:30:16;;;;;;;40.27;25.57;;;;;;;0.85;100.00;101184.94;5000281;28;20211;-46
2022/01/16 00:32:41;;;;;;;34.87;24.73;;;;;;;0.83;100.00;101172.94;5001809;28;20192;-46
2022/01/16 00:35:07;;;;;;;31.20;22.37;;;;;;;0.80;100.00;101190.63;5002051;28;20549;-46
2022/01/16 00:37:33;;;;;;;36.90;24.63;;;;;;;0.78;100.00;101171.84;5004576;28;20173;-45
2022/01/16 00:39:58;;;;;;;38.83;24.17;;;;;;;0.72;100.00;101167.34;4996623;28;20231;-45
2022/01/16 00:42:23;;;;;;;33.80;23.63;;;;;;;0.67;100.00;101176.47;4992469;28;20228;-45
2022/01/16 00:44:49;;;;;;;33.43;22.13;;;;;;;0.63;100.00;101182.22;4994704;28;20627;-47
2022/01/16 00:47:14;;;;;;;32.87;20.57;;;;;;;0.57;100.00;101181.13;4997068;28;20206;-46
2022/01/16 00:49:41;;;;;;;33.50;21.93;;;;;;;0.56;100.00;101165.78;5001953;28;20495;-46
2022/01/16 00:52:08;;;;;;;30.27;20.10;;;;;;;0.54;100.00;101188.63;4993228;28;20533;-45
2022/01/16 00:54:34;;;;;;;34.47;23.47;;;;;;;0.54;100.00;101196.25;4998285;28;20657;-45
2022/01/16 00:56:59;;;;;;;29.80;20.40;;;;;;;0.53;100.00;101191.09;4997576;28;20191;-48
2022/01/16 00:59:24;;;;;;;30.97;20.37;;;;;;;0.49;100.00;101200.28;4998614;28;20214;-48
2022/01/16 01:01:50;;;;;;;30.57;20.33;;;;;;;0.47;100.00;101221.38;4995669;28;20196;-47
2022/01/16 01:04:16;;;;;;;33.93;21.67;;;;;;;0.45;100.00;101204.34;4991628;28;20542;-47
2022/01/16 01:06:41;;;;;;;31.23;20.90;;;;;;;0.41;100.00;101199.03;5004095;28;20219;-47
2022/01/16 01:09:06;;;;;;;27.17;18.30;;;;;;;0.38;100.00;101199.78;5006430;28;20180;-47
2022/01/16 01:11:32;;;;;;;27.93;17.97;;;;;;;0.38;100.00;101214.19;4996371;28;20557;-46
2022/01/16 01:16:25;;;;;;;25.70;18.43;;;;;;;0.38;100.00;101227.78;5003640;28;20219;-46
2022/01/16 01:18:50;;;;;;;29.20;18.70;;;;;;;0.39;100.00;101210.81;5001489;28;20189;-46
2022/01/16 01:21:27;;;;;;;24.10;17.47;;;;;;;0.38;100.00;101168.38;5004951;28;20667;-46
2022/01/16 01:23:53;;;;;;;25.90;17.20;;;;;;;0.36;100.00;101122.44;5003746;28;20195;-46
2022/01/16 01:26:23;;;;;;;25.13;18.27;;;;;;;0.37;100.00;101126.72;5001793;28;20224;-46
2022/01/16 01:28:49;;;;;;;26.17;17.90;;;;;;;0.35;100.00;101128.31;5001066;28;20219;-46
2022/01/16 01:31:14;;;;;;;22.53;16.73;;;;;;;0.34;100.00;101130.81;4999010;28;20220;-46
2022/01/16 01:33:40;;;;;;;23.53;16.80;;;;;;;0.35;100.00;101122.38;4995666;28;20201;-46
2022/01/16 01:36:05;;;;;;;23.47;17.07;;;;;;;0.34;100.00;101141.84;4999594;28;20266;-46
2022/01/16 01:38:30;;;;;;;25.10;18.00;;;;;;;0.35;100.00;101163.13;4997941;28;20194;-46
2022/01/16 01:40:56;;;;;;;27.53;18.70;;;;;;;0.37;100.00;101176.81;5003507;28;20228;-47
2022/01/16 01:51:26;;;;;;;25.03;16.90;;;;;;;0.32;100.00;101199.47;4989322;28;20192;-46
2022/01/16 01:53:55;;;;;;;29.47;19.00;;;;;;;0.34;100.00;101205.50;4997226;28;20493;-47
2022/01/16 01:56:23;;;;;;;30.03;21.57;;;;;;;0.29;100.00;101200.22;4996344;28;20216;-47
2022/01/16 01:58:49;;;;;;;28.47;20.50;;;;;;;0.24;100.00;101196.56;5003727;28;20219;-46
2022/01/16 02:01:16;;;;;;;28.57;19.97;;;;;;;0.20;100.00;101199.78;5001030;28;20742;-47
2022/01/16 02:06:14;;;;;;;29.17;18.37;;;;;;;0.18;100.00;101216.66;5011153;28;20212;-47
2022/01/16 02:08:43;;;;;;;29.97;19.43;;;;;;;0.18;100.00;101221.75;5003005;28;20564;-46
2022/01/16 02:11:13;;;;;;;23.30;16.17;;;;;;;0.18;100.00;101239.56;5000411;28;20180;-47
2022/01/16 02:29:13;;;;;;;24.77;17.37;;;;;;;0.16;100.00;101230.97;4992694;28;20208;-46
2022/01/16 02:36:18;;;;;;;23.63;15.57;;;;;;;0.15;100.00;101204.63;5002799;28;20231;-46
2022/01/16 02:38:45;;;;;;;24.43;16.47;;;;;;;0.16;100.00;101213.16;4999337;28;20479;-46
2022/01/16 02:41:11;;;;;;;29.23;19.57;;;;;;;0.12;100.00;101204.50;4997267;28;20195;-46
2022/01/16 02:43:41;;;;;;;32.47;22.90;;;;;;;0.09;100.00;101204.34;4997489;28;20182;-46
2022/01/16 02:46:49;;;;;;;28.47;20.33;;;;;;;0.03;100.00;101191.31;5004507;28;20362;-46
2022/01/16 02:48:55;;;;;;;27.10;19.60;;;;;;;-0.07;100.00;101181.50;4986911;28;20234;-47
2022/01/16 02:51:25;;;;;;;25.37;17.47;;;;;;;-0.13;100.00;101173.53;5000306;28;20290;-48
2022/01/16 02:53:51;;;;;;;23.63;16.67;;;;;;;-0.13;100.00;101165.91;4995031;28;20535;-45
2022/01/16 02:56:18;;;;;;;25.93;17.43;;;;;;;-0.14;100.00;101159.06;5008513;28;20718;-47
2022/01/16 02:58:45;;;;;;;26.90;17.57;;;;;;;-0.14;100.00;101159.97;4998801;28;20195;-47
2022/01/16 03:01:11;;;;;;;26.40;18.57;;;;;;;-0.17;100.00;101162.34;4999931;28;20207;-47
2022/01/16 03:03:36;;;;;;;28.50;19.20;;;;;;;-0.20;100.00;101165.63;4994449;28;20753;-46
2022/01/16 03:06:02;;;;;;;29.53;20.60;;;;;;;-0.26;100.00;101165.31;4993708;28;20249;-47
2022/01/16 03:08:27;;;;;;;27.37;18.93;;;;;;;-0.32;100.00;101165.91;5001272;28;20203;-47
2022/01/16 03:13:26;;;;;;;27.43;19.03;;;;;;;-0.38;100.00;101165.56;4991307;28;20198;-46
2022/01/16 03:15:54;;;;;;;27.90;20.57;;;;;;;-0.41;100.00;101175.63;5002061;28;22228;-46
2022/01/16 03:23:29;;;;;;;27.97;19.20;;;;;;;-0.50;100.00;101178.56;5000151;28;20498;-46
2022/01/16 03:25:55;;;;;;;29.43;18.77;;;;;;;-0.53;100.00;101178.41;4997860;28;20213;-47
2022/01/16 03:28:23;;;;;;;28.50;17.83;;;;;;;-0.54;100.00;101181.75;4996175;28;20266;-47
2022/01/16 03:30:48;;;;;;;28.10;19.37;;;;;;;-0.54;100.00;101171.56;4991828;28;20637;-46
2022/01/16 03:33:15;;;;;;;29.13;19.17;;;;;;;-0.53;100.00;101167.38;4994418;28;20229;-46
2022/01/16 03:35:41;;;;;;;27.77;18.70;;;;;;;-0.55;100.00;101169.81;4999278;28;20218;-46
2022/01/16 03:38:07;;;;;;;27.10;18.03;;;;;;;-0.55;100.00;101169.81;4994432;28;20193;-46
2022/01/16 03:40:32;;;;;;;30.60;20.93;;;;;;;-0.50;100.00;101177.69;4995117;28;20200;-46
2022/01/16 03:43:04;;;;;;;29.00;20.77;;;;;;;-0.51;100.00;101175.94;4994314;28;20221;-46
2022/01/16 03:45:30;;;;;;;33.00;21.83;;;;;;;-0.54;100.00;101163.94;4994349;28;20238;-46
2022/01/16 03:47:56;;;;;;;31.60;20.33;;;;;;;-0.58;100.00;101177.28;5002559;28;20189;-46
2022/01/16 03:50:21;;;;;;;27.67;18.93;;;;;;;-0.58;100.00;101179.84;5000042;28;20247;-47
2022/01/16 03:52:46;;;;;;;26.77;18.03;;;;;;;-0.60;100.00;101185.66;4993536;28;20223;-47
2022/01/16 03:55:12;;;;;;;22.53;15.57;;;;;;;-0.60;100.00;101186.50;5000690;28;20221;-47
2022/01/16 03:57:37;;;;;;;21.67;15.33;;;;;;;-0.59;100.00;101187.41;4993839;28;20649;-47
2022/01/16 04:00:07;;;;;;;19.53;14.47;;;;;;;-0.55;100.00;101182.53;4999176;28;20209;-47
2022/01/16 04:02:33;;;;;;;23.23;16.77;;;;;;;-0.55;100.00;101185.09;5004481;28;20650;-47
2022/01/16 04:04:58;;;;;;;25.47;17.10;;;;;;;-0.54;100.00;101191.06;5004883;28;20254;-47
2022/01/16 04:07:28;;;;;;;21.63;14.63;;;;;;;-0.54;100.00;101186.84;5003398;28;20247;-47
2022/01/16 04:09:54;;;;;;;23.43;15.53;;;;;;;-0.53;100.00;101191.13;4998785;28;20279;-47
2022/01/16 04:12:22;;;;;;;23.73;16.73;;;;;;;-0.54;100.00;101185.97;4992857;28;20280;-47
2022/01/16 04:17:14;;;;;;;23.97;16.80;;;;;;;-0.58;100.00;101187.47;5000964;28;20193;-47
2022/01/16 04:19:39;;;;;;;24.37;16.37;;;;;;;-0.61;100.00;101187.34;5004167;28;20652;-47
2022/01/16 04:22:05;;;;;;;25.60;18.00;;;;;;;-0.60;100.00;101193.28;4997629;28;20198;-45
2022/01/16 04:24:30;;;;;;;25.07;17.93;;;;;;;-0.61;100.00;101197.50;5003658;28;20183;-44
2022/01/16 04:26:55;;;;;;;25.60;17.20;;;;;;;-0.66;100.00;101192.16;5006352;28;20559;-47
2022/01/16 04:29:21;;;;;;;25.40;15.97;;;;;;;-0.69;100.00;101193.69;4999521;28;20368;-47
2022/01/16 04:31:46;;;;;;;24.47;16.90;;;;;;;-0.70;100.00;101207.19;5000347;28;20607;-46
2022/01/16 04:34:12;;;;;;;27.73;18.10;;;;;;;-0.74;100.00;101195.09;4999410;28;20811;-46
2022/01/16 04:36:37;;;;;;;22.03;16.07;;;;;;;-0.77;100.00;101193.28;5007420;28;20295;-47
2022/01/16 04:39:09;;;;;;;23.27;16.60;;;;;;;-0.77;100.00;101198.38;5006210;28;20269;-46
2022/01/16 04:44:18;;;;;;;24.50;17.40;;;;;;;-0.77;100.00;101189.09;4998347;28;20208;-46
2022/01/16 04:46:46;;;;;;;23.80;16.13;;;;;;;-0.81;100.00;101188.81;5004418;28;20679;-47
2022/01/16 04:49:12;;;;;;;22.90;15.50;;;;;;;-0.79;100.00;101179.63;5006052;28;20196;-47
2022/01/16 04:51:37;;;;;;;22.23;15.30;;;;;;;-0.80;100.00;101176.22;5000059;28;20191;-47
2022/01/16 04:54:02;;;;;;;21.40;14.73;;;;;;;-0.80;100.00;101181.31;4999473;28;20555;-47
2022/01/16 04:56:28;;;;;;;27.00;17.57;;;;;;;-0.76;100.00;101184.88;4995102;28;20217;-47
2022/01/16 04:58:53;;;;;;;25.43;17.90;;;;;;;-0.76;100.00;101184.88;4998039;28;20199;-47
2022/01/16 05:01:19;;;;;;;22.63;15.53;;;;;;;-0.81;100.00;101176.13;4999382;28;20225;-47
2022/01/16 05:03:44;;;;;;;24.97;17.03;;;;;;;-0.83;100.00;101176.06;4998353;28;20552;-47
2022/01/16 05:06:10;;;;;;;27.73;18.03;;;;;;;-0.84;100.00;101175.97;4999096;28;20231;-47
2022/01/16 05:08:36;;;;;;;26.40;18.20;;;;;;;-0.88;100.00;101174.06;5001129;28;20198;-47
2022/01/16 05:11:01;;;;;;;27.97;18.60;;;;;;;-0.88;100.00;101176.59;4994787;28;20204;-47
2022/01/16 05:19:02;;;;;;;25.20;17.83;;;;;;;-0.97;100.00;101187.16;4999786;28;20301;-47
2022/01/16 05:21:28;;;;;;;26.23;18.33;;;;;;;-0.97;100.00;101189.72;5003199;28;20195;-47
2022/01/16 05:23:53;;;;;;;28.73;19.27;;;;;;;-1.02;100.00;101189.47;4998086;28;20192;-47
2022/01/16 05:26:25;;;;;;;26.53;18.50;;;;;;;-1.02;100.00;101192.00;5000631;28;20229;-46
2022/01/16 05:28:50;;;;;;;26.77;17.47;;;;;;;-1.01;100.00;101201.38;4990895;28;20225;-46
2022/01/16 05:31:16;;;;;;;24.30;16.90;;;;;;;-1.00;100.00;101198.06;4997837;28;20270;-46
2022/01/16 05:33:42;;;;;;;23.57;17.43;;;;;;;-1.00;100.00;101198.06;5000613;28;20197;-45
2022/01/16 05:36:07;;;;;;;25.67;16.83;;;;;;;-0.98;100.00;101210.81;4998309;28;20201;-46
2022/01/16 05:38:33;;;;;;;24.90;17.97;;;;;;;-0.97;100.00;101217.66;4994662;28;20245;-45
2022/01/16 05:40:58;;;;;;;24.13;16.70;;;;;;;-0.98;100.00;101226.06;4997830;28;20239;-47
2022/01/16 05:43:23;;;;;;;26.90;18.60;;;;;;;-0.98;100.00;101224.38;5001273;28;20564;-46
2022/01/16 05:45:49;;;;;;;27.13;18.93;;;;;;;-0.99;100.00;101237.03;4996312;28;20875;-46
2022/01/16 05:48:14;;;;;;;26.97;19.67;;;;;;;-1.02;100.00;101231.78;4997282;28;20786;-46
2022/01/16 05:50:40;;;;;;;27.00;19.87;;;;;;;-1.07;100.00;101236.63;4999624;28;20196;-46
2022/01/16 05:53:05;;;;;;;29.63;20.00;;;;;;;-1.10;100.00;101227.19;4998227;28;20214;-46
2022/01/16 05:55:36;;;;;;;27.60;18.97;;;;;;;-1.12;100.00;101223.66;5000718;28;20464;-45
2022/01/16 05:58:06;;;;;;;27.27;18.93;;;;;;;-1.10;100.00;101218.66;4993556;28;20203;-45
2022/01/16 06:00:32;;;;;;;26.77;18.97;;;;;;;-1.12;100.00;101221.13;4996679;28;20207;-47
2022/01/16 06:02:58;;;;;;;28.27;20.27;;;;;;;-1.10;100.00;101211.03;4996762;28;20637;-48
2022/01/16 06:05:23;;;;;;;28.40;19.00;;;;;;;-1.08;100.00;101220.50;4997802;28;20228;-47
2022/01/16 06:07:56;;;;;;;26.33;18.33;;;;;;;-1.06;100.00;101223.13;4996274;28;20672;-47
2022/01/16 06:10:22;;;;;;;23.47;17.73;;;;;;;-1.03;100.00;101217.31;5006421;28;20207;-47
2022/01/16 06:12:47;;;;;;;26.87;18.57;;;;;;;-1.01;100.00;101218.28;4993339;28;20190;-47
2022/01/16 06:15:13;;;;;;;27.30;20.00;;;;;;;-0.99;100.00;101222.66;5002508;28;20226;-47
2022/01/16 06:17:38;;;;;;;26.60;18.50;;;;;;;-0.97;100.00;101235.44;4999031;28;20206;-47
2022/01/16 06:20:05;;;;;;;25.77;18.27;;;;;;;-0.97;100.00;101246.47;4999826;28;20194;-47
2022/01/16 06:22:30;;;;;;;26.50;17.70;;;;;;;-0.96;100.00;101244.81;4991089;28;20214;-47
2022/01/16 06:24:55;;;;;;;26.77;20.60;;;;;;;-0.92;100.00;101254.38;4992897;28;20235;-46
2022/01/16 06:27:21;;;;;;;24.50;17.80;;;;;;;-0.93;100.00;101261.09;5001290;28;20220;-46
2022/01/16 06:29:46;;;;;;;22.23;16.13;;;;;;;-0.92;100.00;101261.97;5003527;28;20218;-47
2022/01/16 06:32:12;;;;;;;21.70;15.50;;;;;;;-0.89;100.00;101269.75;5012706;28;20229;-47
2022/01/16 06:34:37;;;;;;;23.97;18.13;;;;;;;-0.85;100.00;101273.34;4995949;28;20683;-46
2022/01/16 06:37:03;;;;;;;26.60;18.87;;;;;;;-0.84;100.00;101275.97;4992974;28;20590;-47
2022/01/16 06:39:29;;;;;;;27.10;19.13;;;;;;;-0.85;100.00;101273.34;4993007;28;20194;-47
2022/01/16 06:41:55;;;;;;;26.53;18.10;;;;;;;-0.87;100.00;101270.72;4989536;28;21165;-45
2022/01/16 06:44:22;;;;;;;30.07;19.87;;;;;;;-0.88;100.00;101275.72;4998706;28;20198;-47
2022/01/16 06:46:48;;;;;;;27.03;18.87;;;;;;;-0.90;100.00;101285.78;4991893;28;20218;-47
2022/01/16 06:49:13;;;;;;;24.90;18.77;;;;;;;-0.92;100.00;101279.78;4996816;28;20570;-47
2022/01/16 06:51:39;;;;;;;26.70;20.73;;;;;;;-0.92;100.00;101272.16;4993453;28;20253;-47
2022/01/16 06:54:04;;;;;;;27.43;19.80;;;;;;;-0.93;100.00;101266.19;4993651;28;20199;-47
2022/01/16 06:56:30;;;;;;;26.67;19.83;;;;;;;-0.92;100.00;101272.16;4999820;28;20222;-47
2022/01/16 06:58:57;;;;;;;26.07;20.33;;;;;;;-0.94;100.00;101268.66;4999692;28;20191;-47
2022/01/16 07:01:22;;;;;;;30.33;20.37;;;;;;;-0.94;100.00;101264.44;4996092;28;20276;-47
2022/01/16 07:03:49;;;;;;;29.40;21.33;;;;;;;-0.93;100.00;101266.19;4995714;28;20284;-47
2022/01/16 07:06:14;;;;;;;28.07;19.50;;;;;;;-0.94;100.00;101289.84;4998118;28;20235;-47
2022/01/16 07:08:40;;;;;;;29.83;20.83;;;;;;;-0.92;100.00;101282.31;4998843;28;20189;-48
2022/01/16 07:11:05;;;;;;;30.33;21.93;;;;;;;-0.90;100.00;101288.31;4994366;28;20556;-47
2022/01/16 07:13:31;;;;;;;29.03;21.17;;;;;;;-0.88;100.00;101296.06;5007616;28;20870;-47
2022/01/16 07:15:57;;;;;;;26.80;20.37;;;;;;;-0.89;100.00;101295.16;4996827;28;20226;-47
2022/01/16 07:18:22;;;;;;;28.30;20.93;;;;;;;-0.87;100.00;101297.81;5006040;28;20205;-47
2022/01/16 07:20:48;;;;;;;29.27;20.87;;;;;;;-0.88;100.00;101299.47;4994292;28;20188;-46
2022/01/16 07:23:15;;;;;;;28.03;20.17;;;;;;;-0.88;100.00;101311.31;5010998;28;20693;-47
2022/01/16 07:25:41;;;;;;;29.40;20.47;;;;;;;-0.87;100.00;101315.59;5004144;28;20218;-46
2022/01/16 07:28:08;;;;;;;28.20;20.70;;;;;;;-0.85;100.00;101335.22;5014427;28;20676;-46
2022/01/16 07:30:34;;;;;;;29.67;21.23;;;;;;;-0.85;100.00;101339.44;5008648;28;20700;-46
2022/01/16 07:33:00;;;;;;;27.57;20.67;;;;;;;-0.84;100.00;101346.28;5013371;28;20665;-46
2022/01/16 07:35:25;;;;;;;32.00;23.43;;;;;;;-0.83;100.00;101348.03;5006531;28;20226;-46
2022/01/16 07:37:54;;;;;;;27.47;21.13;;;;;;;-0.83;100.00;101337.84;4991284;28;20262;-46
2022/01/16 07:40:22;;;;;;;31.97;22.57;;;;;;;-0.79;100.00;101337.22;4990826;28;20208;-46
2022/01/16 07:42:48;;;;;;;30.03;22.10;;;;;;;-0.77;100.00;101355.97;4987600;28;20187;-46
2022/01/16 07:45:14;;;;;;;28.03;20.50;;;;;;;-0.76;100.00;101352.63;4999220;28;20696;-46
2022/01/16 07:47:39;;;;;;;27.23;21.20;;;;;;;-0.74;100.00;101342.53;5003454;28;20742;-47
2022/01/16 07:50:08;;;;;;;29.20;22.10;;;;;;;-0.70;100.00;101352.97;5011496;28;20715;-47
2022/01/16 07:52:34;;;;;;;30.53;23.00;;;;;;;-0.69;100.00;101364.00;5002928;28;20335;-47
2022/01/16 07:54:59;;;;;;;29.70;22.33;;;;;;;-0.68;100.00;101361.53;5019571;28;20702;-47
2022/01/16 07:57:25;;;;;;;31.57;21.53;;;;;;;-0.68;100.00;101361.53;5021966;28;20748;-47
2022/01/16 07:59:50;;;;;;;30.17;23.10;;;;;;;-0.67;100.00;101362.41;5014008;28;20191;-47
2022/01/16 08:02:16;;;;;;;30.70;22.93;;;;;;;-0.67;100.00;101362.41;5006240;28;20274;-46
2022/01/16 08:04:42;;;;;;;36.07;27.30;;;;;;;-0.64;100.00;101368.53;5019695;28;20442;-47
2022/01/16 08:07:09;;;;;;;33.57;25.10;;;;;;;-0.59;100.00;101363.69;5011893;28;20218;-46
2022/01/16 08:09:36;;;;;;;36.73;26.23;;;;;;;-0.59;100.00;101363.69;4988212;28;20191;-45
2022/01/16 08:12:02;;;;;;;36.13;27.67;;;;;;;-0.58;100.00;101362.03;5001848;28;20197;-46
2022/01/16 08:14:27;;;;;;;38.17;26.27;;;;;;;-0.57;100.00;101363.81;5011110;28;20201;-46
2022/01/16 08:16:56;;;;;;;36.07;26.37;;;;;;;-0.56;100.00;101378.25;5011439;28;20194;-47
2022/01/16 08:19:22;;;;;;;36.80;27.73;;;;;;;-0.55;100.00;101375.78;5013500;28;20344;-47
2022/01/16 08:21:47;;;;;;;43.10;31.07;;;;;;;-0.52;100.00;101382.69;5000513;28;20654;-47
2022/01/16 08:24:12;;;;;;;36.83;28.00;;;;;;;-0.50;100.00;101386.22;4992548;28;20191;-46
2022/01/16 08:26:38;;;;;;;39.33;30.70;;;;;;;-0.49;100.00;101385.41;4994079;28;20706;-47
2022/01/16 08:29:03;;;;;;;42.03;30.60;;;;;;;-0.48;100.00;101380.44;4990962;28;20572;-45
2022/01/16 08:31:28;;;;;;;39.57;30.47;;;;;;;-0.44;100.00;101384.00;4989567;28;20210;-45
2022/01/16 08:33:54;;;;;;;36.27;28.57;;;;;;;-0.45;100.00;101384.78;4994047;28;20215;-47
2022/01/16 08:36:21;;;;;;;43.23;31.83;;;;;;;-0.43;100.00;101382.31;4999961;28;20209;-45
2022/01/16 08:38:46;;;;;;;41.93;29.83;;;;;;;-0.39;100.00;101390.22;4994466;28;20195;-46
2022/01/16 08:41:12;;;;;;;36.63;26.87;;;;;;;-0.36;100.00;101385.28;4997212;28;20201;-46
2022/01/16 08:43:37;;;;;;;37.17;27.87;;;;;;;-0.32;100.00;101378.72;4988600;28;20209;-46
2022/01/16 08:46:02;;;;;;;36.93;27.87;;;;;;;-0.29;100.00;101395.78;4995612;28;20217;-47
2022/01/16 08:48:28;;;;;;;36.53;26.67;;;;;;;-0.28;100.00;101407.72;4997511;28;20198;-47
2022/01/16 08:50:54;;;;;;;37.87;28.27;;;;;;;-0.24;100.00;101402.88;5002699;28;20743;-46
2022/01/16 08:53:19;;;;;;;35.57;27.03;;;;;;;-0.24;100.00;101392.69;4998394;28;20190;-47
2022/01/16 08:55:45;;;;;;;33.07;25.07;;;;;;;-0.23;100.00;101396.13;4995719;28;20722;-47
2022/01/16 08:58:10;;;;;;;36.37;27.27;;;;;;;-0.20;100.00;101392.06;4998189;28;20184;-46
2022/01/16 09:00:36;;;;;;;36.60;27.57;;;;;;;-0.17;100.00;101387.16;4997692;28;20241;-45
2022/01/16 09:03:02;;;;;;;36.77;27.57;;;;;;;-0.14;100.00;101394.06;4998777;28;20200;-48
2022/01/16 09:05:28;;;;;;;37.03;28.13;;;;;;;-0.08;100.00;101411.31;4994878;28;20584;-47
2022/01/16 09:07:53;;;;;;;36.17;28.23;;;;;;;-0.06;100.00;101408.03;4996468;28;20585;-47
2022/01/16 09:10:19;;;;;;;35.90;27.43;;;;;;;-0.02;100.00;101417.59;4996640;28;20190;-47
2022/01/16 09:12:45;;;;;;;36.80;28.30;;;;;;;0.02;100.00;101420.31;4991102;28;20220;-46
2022/01/16 09:15:12;;;;;;;33.33;26.83;;;;;;;0.03;100.00;101416.97;4995939;28;20224;-46
2022/01/16 09:17:38;;;;;;;36.53;26.23;;;;;;;0.10;100.00;101419.91;4991817;28;20189;-46
2022/01/16 09:20:05;;;;;;;33.30;24.83;;;;;;;0.16;100.00;101414.25;4993463;28;20189;-48
2022/01/16 09:22:31;;;;;;;32.20;24.07;;;;;;;0.27;100.00;101420.78;4992034;28;20219;-45
2022/01/16 09:24:56;;;;;;;39.53;27.87;;;;;;;0.40;100.00;101421.38;4998874;28;20613;-46
2022/01/16 09:27:22;;;;;;;35.07;26.53;;;;;;;0.49;100.00;101432.06;4993263;28;20344;-44
2022/01/16 09:29:47;;;;;;;31.63;25.07;;;;;;;0.56;100.00;101436.66;4995152;28;20656;-46
2022/01/16 09:32:13;;;;;;;35.57;26.77;;;;;;;0.68;100.00;101438.94;4997028;28;20184;-47
2022/01/16 09:34:39;;;;;;;39.20;28.93;;;;;;;0.75;100.00;101435.03;4998632;28;20192;-46
2022/01/16 09:37:08;;;;;;;33.10;26.03;;;;;;;0.78;100.00;101445.38;4996246;28;20556;-46
2022/01/16 09:39:35;;;;;;;41.50;31.67;;;;;;;0.82;100.00;101448.97;4991670;28;20315;-46
2022/01/16 09:42:03;;;;;;;37.87;29.80;;;;;;;0.86;100.00;101455.97;4993495;28;20622;-46
2022/01/16 09:44:29;;;;;;;39.60;29.90;;;;;;;0.89;100.00;101454.44;4994277;28;20192;-46
2022/01/16 09:46:54;;;;;;;38.67;29.33;;;;;;;0.98;100.00;101460.81;4998210;28;20216;-46
2022/01/16 09:49:20;;;;;;;35.87;28.03;;;;;;;1.07;100.00;101461.25;4998173;28;20623;-46
2022/01/16 09:51:45;;;;;;;35.60;27.47;;;;;;;1.18;100.00;101467.72;4998563;28;20189;-46
2022/01/16 09:54:12;;;;;;;34.83;26.37;;;;;;;1.29;100.00;101472.47;4997466;28;20688;-46
2022/01/16 09:56:37;;;;;;;36.20;28.60;;;;;;;1.35;100.00;101460.91;4994554;28;20213;-46
2022/01/16 09:59:03;;;;;;;32.33;25.83;;;;;;;1.42;100.00;101467.16;4994919;28;20528;-46
2022/01/16 10:01:28;;;;;;;35.53;27.50;;;;;;;1.49;100.00;101470.88;5001322;28;20238;-47
2022/01/16 10:03:53;;;;;;;30.13;24.53;;;;;;;1.55;100.00;101475.41;5004259;28;20196;-46
2022/01/16 10:06:21;;;;;;;31.53;25.67;;;;;;;1.61;100.00;101480.78;5000517;28;20280;-46
2022/01/16 10:08:51;;;;;;;34.47;26.80;;;;;;;1.61;100.00;101488.44;4994965;28;20208;-46
2022/01/16 10:11:39;;;;;;;32.73;25.90;;;;;;;1.58;100.00;101486.63;5000170;28;20193;-46
2022/01/16 10:14:20;;;;;;;30.57;24.13;;;;;;;1.54;100.00;101489.81;4995569;28;20556;-46
2022/01/16 10:16:46;;;;;;;30.50;23.57;;;;;;;1.52;100.00;101511.81;5000756;28;20622;-47
2022/01/16 10:19:24;;;;;;;27.87;22.27;;;;;;;1.51;100.00;101505.84;5008759;28;20202;-46
2022/01/16 10:21:51;;;;;;;32.60;24.83;;;;;;;1.54;100.00;101500.03;4999141;28;20227;-46
2022/01/16 10:24:19;;;;;;;31.93;25.23;;;;;;;1.56;100.00;101498.41;4995592;28;20276;-46
2022/01/16 10:26:46;;;;;;;31.30;25.47;;;;;;;1.56;100.00;101495.88;4998915;28;20300;-46
2022/01/16 10:29:16;;;;;;;31.10;24.80;;;;;;;1.58;100.00;101503.63;5002548;28;20539;-46
2022/01/16 10:31:43;;;;;;;30.30;24.63;;;;;;;1.59;100.00;101502.81;4994024;28;20533;-46
2022/01/16 10:34:31;;;;;;;33.00;25.50;;;;;;;1.64;100.00;101506.44;4997989;28;20263;-46
2022/01/16 10:36:58;;;;;;;30.00;23.63;;;;;;;1.66;100.00;101515.03;4995772;28;20199;-46
2022/01/16 10:39:23;;;;;;;32.47;24.50;;;;;;;1.69;100.00;101517.75;4999856;28;20762;-46
2022/01/16 10:42:17;;;;;;;36.17;27.80;;;;;;;1.74;100.00;101530.72;4994687;28;20208;-46
2022/01/16 10:44:43;;;;;;;32.83;25.40;;;;;;;1.72;100.00;101527.22;4993228;28;20264;-47
2022/01/16 10:47:33;;;;;;;27.77;21.70;;;;;;;1.75;100.00;101530.78;4997668;28;20304;-47
2022/01/16 10:50:07;;;;;;;32.03;24.23;;;;;;;1.82;100.00;101525.19;5002548;28;20754;-47
2022/01/16 10:52:33;;;;;;;31.97;25.80;;;;;;;1.92;100.00;101535.81;4995910;28;20191;-47
2022/01/16 10:55:08;;;;;;;30.23;24.87;;;;;;;1.97;100.00;101536.91;4995520;28;20808;-47
2022/01/16 10:57:34;;;;;;;30.27;24.67;;;;;;;2.03;100.00;101528.66;4997633;28;20976;-46
2022/01/16 11:00:11;;;;;;;29.37;24.10;;;;;;;2.09;100.00;101527.25;5006037;28;20195;-46
2022/01/16 11:02:39;;;;;;;28.50;22.50;;;;;;;2.19;100.00;101538.75;4996954;28;20683;-46
2022/01/16 11:05:10;;;;;;;27.53;21.50;;;;;;;2.31;100.00;101545.22;4995977;28;20228;-46
2022/01/16 11:07:37;;;;;;;25.23;20.40;;;;;;;2.44;100.00;101544.97;4991655;28;20217;-46
2022/01/16 11:10:23;;;;;;;29.27;22.80;;;;;;;2.57;100.00;101539.59;4993014;28;20246;-46
2022/01/16 11:12:49;;;;;;;34.10;26.37;;;;;;;2.69;100.00;101530.72;4996465;28;20199;-47
2022/01/16 11:15:15;;;;;;;33.80;25.93;;;;;;;2.80;100.00;101528.63;4989887;28;20219;-46
2022/01/16 11:17:40;;;;;;;33.90;25.83;;;;;;;2.86;100.00;101521.22;4998528;28;20194;-48
2022/01/16 11:20:07;;;;;;;32.50;24.07;;;;;;;2.93;100.00;101527.47;4995107;28;20560;-47
2022/01/16 11:22:56;;;;;;;33.60;24.03;;;;;;;3.00;100.00;101522.66;4996120;28;20203;-46
2022/01/16 11:25:31;;;;;;;35.53;27.07;;;;;;;3.01;100.00;101524.41;4994956;28;20285;-45
2022/01/16 11:28:01;;;;;;;35.53;26.03;;;;;;;2.97;100.00;101522.53;4996277;28;20454;-46
2022/01/16 11:30:32;;;;;;;34.40;25.00;;;;;;;2.97;100.00;101529.34;5008860;28;20221;-45
2022/01/16 11:32:58;;;;;;;35.30;25.47;;;;;;;2.95;100.00;101536.94;4991422;28;20679;-45
2022/01/16 11:35:26;;;;;;;30.00;23.90;;;;;;;2.94;100.00;101536.88;4997941;28;20292;-46
2022/01/16 11:37:52;;;;;;;30.33;23.87;;;;;;;2.97;100.00;101524.22;4995391;28;20201;-45
2022/01/16 11:40:25;;;;;;;32.23;24.70;;;;;;;2.98;100.00;101531.09;4997520;28;20196;-46
2022/01/16 11:43:13;;;;;;;33.60;23.97;;;;;;;2.99;100.00;101526.03;5004473;28;20203;-47
2022/01/16 11:45:47;;;;;;;31.30;24.83;;;;;;;3.01;100.00;101526.13;4985425;28;20597;-47
2022/01/16 11:48:16;;;;;;;31.10;22.93;;;;;;;3.02;100.00;101523.59;4992485;28;20249;-48
2022/01/16 11:50:42;;;;;;;31.37;25.10;;;;;;;3.05;100.00;101521.19;4992218;28;20192;-47
2022/01/16 11:53:07;;;;;;;33.87;25.43;;;;;;;3.09;100.00;101522.19;4999673;28;20195;-47
2022/01/16 11:55:34;;;;;;;31.13;23.70;;;;;;;3.14;100.00;101522.38;4994556;28;20711;-47
2022/01/16 11:58:00;;;;;;;33.33;24.37;;;;;;;3.17;100.00;101510.59;4991699;28;20313;-47
2022/01/16 12:00:42;;;;;;;29.77;23.50;;;;;;;3.25;100.00;101510.91;4998382;28;20186;-47